Time;durP1;ratioP1;P1;durP2;ratioP2;P2;SDS_P1;SDS_P2;PMS_P1;PMS_P2;Temp;Humidity;BMP_temperature;BMP_pressure;BME280_temperature;BME280_humidity;BME280_pressure;Samples;Min_cycle;Max_cycle;Signal;HPM_P1;HPM_P2
2024/02/04 00:02:20;;;;;;;1.73;1.15;;;;;;;22.21;38.02;102085.75;4993476;28;20556;-67
2024/02/04 00:04:46;;;;;;;2.28;1.30;;;;;;;22.11;38.34;102080.63;4980811;28;20117;-67
2024/02/04 00:07:11;;;;;;;1.70;0.85;;;;;;;22.17;38.05;102090.56;4984801;28;20042;-67
2024/02/04 00:09:37;;;;;;;2.38;1.48;;;;;;;22.14;38.03;102082.94;4987067;28;20053;-67
2024/02/04 00:12:04;;;;;;;1.35;1.23;;;;;;;22.11;38.27;102077.13;4988148;28;20450;-67
2024/02/04 00:14:30;;;;;;;2.33;1.38;;;;;;;22.06;38.21;102077.59;4980119;28;20652;-67
2024/02/04 00:16:55;;;;;;;2.75;1.70;;;;;;;22.08;38.25;102075.63;4988395;28;20474;-67
2024/02/04 00:19:21;;;;;;;2.15;1.38;;;;;;;22.02;38.44;102068.28;4985800;28;20057;-67
2024/02/04 00:21:46;;;;;;;2.63;1.60;;;;;;;21.97;38.31;102058.19;4987719;28;20075;-67
2024/02/04 00:24:12;;;;;;;4.22;1.45;;;;;;;22.00;38.27;102073.75;4989133;28;20038;-67
2024/02/04 00:26:38;;;;;;;1.65;1.40;;;;;;;22.02;38.22;102077.06;4989998;28;20042;-67
2024/02/04 00:29:03;;;;;;;4.95;1.55;;;;;;;21.97;38.11;102076.75;4981103;28;20049;-67
2024/02/04 00:31:29;;;;;;;3.28;1.52;;;;;;;21.98;38.52;102088.19;4999879;28;20039;-67
2024/02/04 00:33:54;;;;;;;2.88;1.02;;;;;;;21.97;38.13;102090.00;4987884;28;20027;-67
2024/02/04 00:36:21;;;;;;;2.47;1.38;;;;;;;21.95;38.17;102096.47;5001248;28;20070;-67
2024/02/04 00:38:47;;;;;;;2.70;1.40;;;;;;;21.94;38.48;102106.25;5001466;28;20046;-67
2024/02/04 00:41:12;;;;;;;5.18;1.70;;;;;;;21.93;38.32;102115.19;4995580;28;20252;-67
2024/02/04 00:43:38;;;;;;;3.35;1.35;;;;;;;21.85;38.20;102103.72;5001882;28;20089;-67
2024/02/04 00:46:04;;;;;;;3.42;1.50;;;;;;;21.90;38.00;102118.19;4983697;28;20050;-67
2024/02/04 00:48:29;;;;;;;2.75;1.30;;;;;;;21.80;38.14;102100.75;5002761;28;20041;-67
2024/02/04 00:50:55;;;;;;;2.08;1.30;;;;;;;21.87;38.11;102107.88;4988486;28;20371;-67
2024/02/04 00:53:20;;;;;;;1.70;1.30;;;;;;;21.82;38.03;102106.72;4984783;28;20120;-67
2024/02/04 00:55:46;;;;;;;3.88;1.60;;;;;;;21.78;38.18;102102.72;5009507;28;20113;-67
2024/02/04 00:58:11;;;;;;;2.78;1.30;;;;;;;21.81;38.17;102099.75;5008412;28;20765;-67
2024/02/04 01:00:37;;;;;;;2.30;1.52;;;;;;;21.74;38.12;102082.84;4985028;28;20046;-67
2024/02/04 01:03:02;;;;;;;2.30;1.20;;;;;;;21.77;38.49;102091.28;5002533;28;20061;-67
2024/02/04 01:05:28;;;;;;;1.80;1.23;;;;;;;21.77;38.28;102078.03;4996208;28;20073;-67
2024/02/04 01:07:53;;;;;;;3.10;1.63;;;;;;;21.76;38.10;102078.19;5000027;28;20039;-67
2024/02/04 01:10:19;;;;;;;2.63;1.30;;;;;;;21.55;38.44;102047.66;4984833;28;20045;-67
2024/02/04 01:12:45;;;;;;;1.50;1.02;;;;;;;21.63;38.10;102070.72;4993151;28;20658;-67
2024/02/04 01:15:10;;;;;;;3.20;1.50;;;;;;;21.71;38.28;102076.84;4986193;28;20790;-67
2024/02/04 01:17:36;;;;;;;2.50;1.30;;;;;;;21.63;38.11;102058.28;5001634;28;20026;-67
2024/02/04 01:20:01;;;;;;;2.10;1.20;;;;;;;21.67;38.30;102072.03;4981993;28;20580;-67
2024/02/04 01:22:27;;;;;;;2.85;1.50;;;;;;;21.66;38.49;102083.63;5000958;28;20049;-67
2024/02/04 01:24:53;;;;;;;2.95;1.20;;;;;;;21.61;38.51;102081.47;4999596;28;20109;-67
2024/02/04 01:27:19;;;;;;;2.90;1.23;;;;;;;21.63;38.27;102082.13;4985106;28;20447;-67
2024/02/04 01:29:44;;;;;;;2.35;1.40;;;;;;;21.57;38.41;102074.84;5000759;28;20042;-67
2024/02/04 01:32:10;;;;;;;2.50;1.02;;;;;;;21.51;38.38;102064.88;4980114;28;20034;-67
2024/02/04 01:34:35;;;;;;;2.92;1.40;;;;;;;21.57;38.47;102069.53;5002290;28;20057;-67
2024/02/04 01:37:01;;;;;;;2.47;1.40;;;;;;;21.57;38.13;102069.53;4981203;28;20046;-67
2024/02/04 01:39:26;;;;;;;2.47;1.27;;;;;;;21.54;38.45;102063.72;4984305;28;20101;-67
2024/02/04 01:41:52;;;;;;;2.10;1.15;;;;;;;21.50;38.53;102067.69;5001566;28;20105;-67
2024/02/04 01:44:18;;;;;;;3.95;1.45;;;;;;;21.51;38.39;102067.50;4985703;28;20057;-67
2024/02/04 01:46:44;;;;;;;2.53;1.17;;;;;;;21.50;38.20;102067.69;4970001;28;20046;-67
2024/02/04 01:49:10;;;;;;;2.47;1.48;;;;;;;21.44;38.49;102066.50;4986052;28;20073;-67
2024/02/04 01:51:36;;;;;;;1.55;1.35;;;;;;;21.50;38.46;102065.84;4997938;28;20046;-67
2024/02/04 01:54:03;;;;;;;2.83;1.58;;;;;;;21.47;38.29;102060.88;4985412;28;20092;-67
2024/02/04 01:56:29;;;;;;;1.33;1.08;;;;;;;21.45;38.51;102051.44;4985496;28;20038;-67
2024/02/04 01:58:55;;;;;;;2.10;1.10;;;;;;;21.32;38.43;102030.69;5007235;28;20113;-67
2024/02/04 02:01:25;;;;;;;;;;;;;;;21.44;38.21;102058.56;4971388;28;20402;-67
2024/02/04 02:03:51;;;;;;;1.63;1.15;;;;;;;21.35;38.50;102041.78;5001794;28;19917;-67
2024/02/04 02:06:17;;;;;;;2.75;1.23;;;;;;;21.33;38.59;102029.69;4999371;28;20038;-67
2024/02/04 02:08:42;;;;;;;2.45;1.35;;;;;;;21.32;38.61;102028.03;4999251;28;20046;-67
2024/02/04 02:11:16;;;;;;;2.20;1.45;;;;;;;21.38;38.46;102038.84;5001613;28;20100;-67
2024/02/04 02:13:45;;;;;;;4.93;1.73;;;;;;;21.36;38.51;102035.53;4985628;28;20076;-67
2024/02/04 02:16:17;;;;;;;2.10;1.50;;;;;;;21.37;38.51;102039.00;5000427;28;20130;-67
2024/02/04 02:18:48;;;;;;;3.08;1.25;;;;;;;21.32;38.51;102033.34;4985651;28;20026;-67
2024/02/04 02:21:45;;;;;;;4.18;1.20;;;;;;;21.33;38.55;102035.00;4998924;28;21993;-67
2024/02/04 02:24:23;;;;;;;2.25;1.17;;;;;;;21.31;38.50;102040.44;4986990;28;20030;-67
2024/02/04 02:26:53;;;;;;;1.60;1.02;;;;;;;21.31;38.52;102036.97;4999513;28;20108;-67
2024/02/04 02:29:18;;;;;;;1.90;0.82;;;;;;;21.30;38.44;102038.78;4981787;28;20069;-67
2024/02/04 02:31:45;;;;;;;3.50;1.48;;;;;;;21.28;38.32;102037.31;4987904;28;20754;-67
2024/02/04 02:34:11;;;;;;;2.15;1.13;;;;;;;21.28;38.43;102042.59;5002850;28;20037;-67
2024/02/04 02:37:08;;;;;;;3.30;1.20;;;;;;;21.27;38.22;102033.81;4987719;28;20129;-67
2024/02/04 02:39:42;;;;;;;1.88;1.20;;;;;;;21.18;38.53;102024.13;4980231;28;20120;-67
2024/02/04 02:42:11;;;;;;;2.30;1.02;;;;;;;21.23;38.53;102043.06;4987059;28;20355;-67
2024/02/04 02:44:38;;;;;;;2.50;1.30;;;;;;;21.23;38.39;102053.66;4986583;28;20042;-67
2024/02/04 02:47:05;;;;;;;1.35;1.23;;;;;;;21.21;38.49;102036.25;4989177;28;20107;-67
2024/02/04 02:49:31;;;;;;;1.77;1.08;;;;;;;21.18;38.57;102034.72;4994471;28;20141;-67
2024/02/04 02:51:56;;;;;;;1.27;0.98;;;;;;;20.84;38.38;101976.53;4984459;28;20041;-67
2024/02/04 02:54:22;;;;;;;2.08;1.13;;;;;;;21.14;38.32;102020.16;4998572;28;20112;-67
2024/02/04 02:56:47;;;;;;;2.97;1.10;;;;;;;21.10;38.56;102018.81;4998570;28;20042;-67
2024/02/04 02:59:13;;;;;;;1.25;0.95;;;;;;;21.15;38.18;102026.28;4988968;28;20034;-67
2024/02/04 03:01:39;;;;;;;3.58;1.27;;;;;;;21.11;38.37;102021.31;4987797;28;20042;-67
2024/02/04 03:04:06;;;;;;;2.47;1.52;;;;;;;21.03;38.31;101997.44;4985018;28;20471;-67
2024/02/04 03:06:31;;;;;;;3.38;1.02;;;;;;;21.10;38.24;102017.00;4992843;28;20100;-67
2024/02/04 03:08:57;;;;;;;3.08;1.33;;;;;;;21.09;38.39;102007.41;4991751;28;20053;-67
2024/02/04 03:11:22;;;;;;;2.55;1.00;;;;;;;21.08;38.50;102005.75;4984800;28;20109;-67
2024/02/04 03:13:48;;;;;;;2.13;0.80;;;;;;;21.09;38.64;102001.28;5002750;28;20034;-67
2024/02/04 03:16:14;;;;;;;3.38;1.15;;;;;;;21.06;38.34;102013.03;5003077;28;20395;-67
2024/02/04 03:18:41;;;;;;;3.58;1.38;;;;;;;21.08;38.57;102023.44;5005616;28;20041;-67
2024/02/04 03:21:14;;;;;;;1.70;1.08;;;;;;;21.05;38.74;102029.06;4986826;28;20078;-67
2024/02/04 03:23:44;;;;;;;2.78;1.00;;;;;;;21.05;38.54;102026.41;5007382;28;20034;-67
2024/02/04 03:26:18;;;;;;;2.30;1.17;;;;;;;21.00;38.29;102026.03;5007910;28;20042;-67
2024/02/04 03:28:44;;;;;;;2.38;1.00;;;;;;;20.99;38.47;102019.91;4986784;28;20037;-67
2024/02/04 03:31:10;;;;;;;2.63;0.95;;;;;;;21.00;38.58;102029.53;5004403;28;20041;-67
2024/02/04 03:33:36;;;;;;;2.35;1.05;;;;;;;20.99;38.47;102019.09;5004571;28;20105;-67
2024/02/04 03:36:01;;;;;;;2.67;0.90;;;;;;;20.99;38.40;102025.22;5003041;28;20513;-67
2024/02/04 03:38:27;;;;;;;3.00;1.30;;;;;;;20.95;38.41;102010.63;4987848;28;20038;-67
2024/02/04 03:40:54;;;;;;;3.33;1.05;;;;;;;20.97;38.38;102029.84;4999619;28;20046;-67
2024/02/04 03:43:20;;;;;;;3.35;1.13;;;;;;;20.88;38.40;102009.63;4982829;28;20129;-67
2024/02/04 03:45:45;;;;;;;2.92;1.58;;;;;;;20.92;38.45;102016.25;4998370;28;20562;-67
2024/02/04 03:48:11;;;;;;;1.00;0.82;;;;;;;20.95;38.40;102015.94;5005124;28;20477;-67
2024/02/04 03:50:36;;;;;;;2.03;0.98;;;;;;;20.92;38.37;102016.25;4985953;28;20030;-67
2024/02/04 03:53:02;;;;;;;1.48;0.82;;;;;;;20.86;38.48;102008.13;4983040;28;20139;-67
2024/02/04 03:55:28;;;;;;;2.75;1.38;;;;;;;20.89;38.62;102015.75;5003886;28;20040;-67
2024/02/04 03:57:57;;;;;;;2.00;0.95;;;;;;;20.85;38.27;102009.13;5002324;28;20038;-67
2024/02/04 04:00:22;;;;;;;1.92;0.73;;;;;;;20.81;38.43;102003.28;4985998;28;20145;-67
2024/02/04 04:02:48;;;;;;;3.20;0.90;;;;;;;20.89;38.30;102016.56;4986537;28;20447;-67
2024/02/04 04:05:13;;;;;;;3.70;1.33;;;;;;;20.89;38.42;101999.88;4985016;28;20629;-67
2024/02/04 04:07:40;;;;;;;1.92;1.00;;;;;;;20.78;38.19;101977.97;4990234;28;20802;-67
2024/02/04 04:10:05;;;;;;;2.20;1.17;;;;;;;20.87;38.55;101994.72;4986443;28;20053;-67
2024/02/04 04:12:31;;;;;;;1.92;1.10;;;;;;;20.85;38.30;102002.00;4994340;28;20038;-67
2024/02/04 04:14:56;;;;;;;2.92;1.17;;;;;;;20.81;38.38;102001.47;4991494;28;20153;-67
2024/02/04 04:17:22;;;;;;;2.88;0.95;;;;;;;20.83;38.53;101990.75;4994646;28;20148;-67
2024/02/04 04:19:47;;;;;;;3.85;1.08;;;;;;;20.83;38.43;101992.56;4994095;28;20046;-67
2024/02/04 04:22:13;;;;;;;1.55;1.23;;;;;;;20.75;38.43;101988.88;4993895;28;20042;-67
2024/02/04 04:24:39;;;;;;;1.63;1.15;;;;;;;20.77;38.56;101992.19;4993765;28;20417;-67
2024/02/04 04:27:04;;;;;;;1.75;0.95;;;;;;;20.76;38.30;102000.28;5001191;28;20077;-67
2024/02/04 04:29:30;;;;;;;1.13;0.93;;;;;;;20.78;38.33;102003.59;5005000;28;20060;-67
2024/02/04 04:31:55;;;;;;;2.63;1.20;;;;;;;20.70;38.49;101995.63;4987809;28;20048;-67
2024/02/04 04:34:21;;;;;;;4.28;1.75;;;;;;;20.76;38.39;101992.34;4987715;28;20529;-67
2024/02/04 04:36:46;;;;;;;3.38;1.15;;;;;;;20.74;38.38;101992.50;4989054;28;20171;-68
2024/02/04 04:39:12;;;;;;;3.78;1.25;;;;;;;20.72;38.62;101991.84;4989056;28;20041;-68
2024/02/04 04:41:39;;;;;;;2.00;1.30;;;;;;;20.71;38.54;101982.25;4984019;28;20530;-67
2024/02/04 04:44:05;;;;;;;2.28;0.93;;;;;;;20.73;38.15;101987.38;4987224;28;20116;-67
2024/02/04 04:46:30;;;;;;;1.98;1.10;;;;;;;20.71;38.48;101973.47;4980491;28;20051;-68
2024/02/04 04:48:57;;;;;;;1.75;1.30;;;;;;;20.70;38.50;101966.53;5007944;28;20052;-67
2024/02/04 04:51:24;;;;;;;2.47;1.05;;;;;;;20.67;38.43;101962.38;4987803;28;20057;-68
2024/02/04 04:53:49;;;;;;;3.33;1.10;;;;;;;20.66;38.35;101968.66;4987825;28;20459;-68
2024/02/04 04:56:15;;;;;;;2.10;1.02;;;;;;;20.69;38.53;101965.69;4984068;28;20038;-67
2024/02/04 04:58:40;;;;;;;1.50;0.68;;;;;;;20.67;38.42;101962.38;4988574;28;20042;-68
2024/02/04 05:01:06;;;;;;;1.88;1.02;;;;;;;20.63;38.52;101946.94;4988226;28;20044;-68
2024/02/04 05:03:32;;;;;;;2.83;1.05;;;;;;;20.66;38.57;101958.06;4987278;28;20104;-68
2024/02/04 05:05:58;;;;;;;2.97;1.00;;;;;;;20.67;38.33;101958.91;4990870;28;20379;-67
2024/02/04 05:08:23;;;;;;;3.35;1.20;;;;;;;20.67;38.40;101953.59;4987224;28;20026;-67
2024/02/04 05:10:49;;;;;;;4.13;1.30;;;;;;;20.66;38.37;101942.19;4982494;28;20430;-67
2024/02/04 05:13:14;;;;;;;2.38;0.90;;;;;;;20.56;38.39;101919.47;4982707;28;20565;-67
2024/02/04 05:15:40;;;;;;;2.53;1.25;;;;;;;20.43;38.48;101906.66;4990604;28;20100;-67
2024/02/04 05:18:05;;;;;;;1.83;1.10;;;;;;;20.63;38.36;101939.84;4986528;28;20066;-68
2024/02/04 05:20:31;;;;;;;1.42;1.00;;;;;;;20.62;38.37;101947.94;4988911;28;20045;-67
2024/02/04 05:22:57;;;;;;;1.75;0.90;;;;;;;20.62;38.39;101947.94;4988393;28;20050;-68
2024/02/04 05:25:23;;;;;;;1.98;1.02;;;;;;;20.62;38.43;101938.19;5002808;28;20430;-67
2024/02/04 05:27:49;;;;;;;3.97;1.15;;;;;;;20.52;38.25;101925.06;5001187;28;20136;-67
2024/02/04 05:30:15;;;;;;;2.38;0.85;;;;;;;20.61;38.42;101940.97;4990601;28;20038;-67
2024/02/04 05:32:41;;;;;;;2.67;1.02;;;;;;;20.50;38.30;101913.81;5000820;28;20053;-67
2024/02/04 05:35:07;;;;;;;2.20;0.85;;;;;;;20.53;38.49;101923.25;4986592;28;20046;-67
2024/02/04 05:37:33;;;;;;;1.60;1.10;;;;;;;20.56;38.44;101938.00;4984255;28;20112;-67
2024/02/04 05:39:58;;;;;;;2.83;1.05;;;;;;;20.61;38.22;101935.69;5002710;28;20042;-67
2024/02/04 05:42:24;;;;;;;2.15;1.05;;;;;;;20.62;38.43;101934.69;4987493;28;20030;-67
2024/02/04 05:44:50;;;;;;;2.30;1.05;;;;;;;20.60;38.50;101931.38;4988851;28;20753;-68
2024/02/04 05:47:15;;;;;;;2.90;1.20;;;;;;;20.59;38.33;101933.19;4982813;28;20046;-67
2024/02/04 05:49:41;;;;;;;2.00;1.30;;;;;;;20.57;38.46;101931.72;4989992;28;20146;-67
2024/02/04 05:52:07;;;;;;;1.35;0.85;;;;;;;20.52;38.53;101916.31;5001446;28;20046;-67
2024/02/04 05:54:37;;;;;;;1.83;0.98;;;;;;;20.49;38.36;101909.53;4986339;28;20089;-67
2024/02/04 05:57:03;;;;;;;2.70;0.90;;;;;;;20.46;38.36;101890.47;4981320;28;20121;-67
2024/02/04 05:59:28;;;;;;;4.57;1.45;;;;;;;20.46;38.22;101896.59;4985709;28;20105;-67
2024/02/04 06:01:54;;;;;;;3.25;1.52;;;;;;;20.59;38.39;101913.84;4987605;28;20042;-68
2024/02/04 06:04:19;;;;;;;3.40;0.88;;;;;;;20.59;38.27;101924.44;4998651;28;20082;-67
2024/02/04 06:06:46;;;;;;;1.05;0.77;;;;;;;20.52;38.33;101911.03;4985880;28;20108;-68
2024/02/04 06:09:11;;;;;;;0.85;0.73;;;;;;;20.58;38.49;101906.91;4980550;28;20054;-67
2024/02/04 06:11:37;;;;;;;2.78;1.13;;;;;;;20.59;38.52;101924.44;4989378;28;20046;-67
2024/02/04 06:14:02;;;;;;;1.48;1.00;;;;;;;20.54;38.52;101926.75;4998721;28;20050;-67
2024/02/04 06:16:28;;;;;;;1.98;1.27;;;;;;;20.50;38.37;101900.59;4992425;28;20521;-67
2024/02/04 06:18:56;;;;;;;1.52;1.10;;;;;;;20.49;38.55;101903.41;4983420;28;20050;-67
2024/02/04 06:21:22;;;;;;;4.03;1.05;;;;;;;20.52;38.30;101917.13;4987674;28;20061;-67
2024/02/04 06:23:48;;;;;;;2.03;1.00;;;;;;;20.34;38.43;101891.72;4985286;28;20054;-68
2024/02/04 06:26:13;;;;;;;1.48;1.10;;;;;;;20.45;38.46;101905.50;4982393;28;20065;-67
2024/02/04 06:28:39;;;;;;;2.35;1.00;;;;;;;20.54;38.43;101914.34;4985131;28;20097;-67
2024/02/04 06:31:04;;;;;;;1.55;1.00;;;;;;;20.57;38.25;101915.81;4990771;28;20049;-67
2024/02/04 06:33:30;;;;;;;1.50;0.82;;;;;;;20.55;38.55;101905.41;4991316;28;20064;-67
2024/02/04 06:35:55;;;;;;;3.28;1.05;;;;;;;20.56;38.30;101899.13;5005862;28;20610;-68
2024/02/04 06:38:21;;;;;;;3.53;1.40;;;;;;;20.56;38.40;101895.66;4984651;28;20037;-67
2024/02/04 06:40:47;;;;;;;2.40;1.25;;;;;;;20.56;38.53;101915.00;4979919;28;20468;-67
2024/02/04 06:43:12;;;;;;;2.00;1.02;;;;;;;20.45;38.46;101892.28;4988876;28;20038;-67
2024/02/04 06:45:38;;;;;;;4.13;1.65;;;;;;;20.49;38.34;101888.34;4989400;28;20046;-67
2024/02/04 06:48:04;;;;;;;3.90;1.13;;;;;;;20.54;38.41;101889.69;4992199;28;20042;-67
2024/02/04 06:50:29;;;;;;;2.28;0.95;;;;;;;20.47;38.39;101873.63;4985778;28;20431;-67
2024/02/04 06:52:55;;;;;;;2.55;1.23;;;;;;;20.49;38.34;101896.28;5001815;28;20049;-67
2024/02/04 06:55:20;;;;;;;3.13;1.48;;;;;;;20.51;38.37;101906.72;5000715;28;20104;-67
2024/02/04 06:57:46;;;;;;;1.17;0.90;;;;;;;20.45;38.53;101899.38;4992302;28;20041;-67
2024/02/04 07:00:12;;;;;;;2.53;1.45;;;;;;;20.50;38.44;101913.00;4991942;28;20038;-67
2024/02/04 07:02:37;;;;;;;2.63;1.20;;;;;;;20.50;38.42;101911.19;4985442;28;20391;-67
2024/02/04 07:05:04;;;;;;;3.80;1.10;;;;;;;20.29;38.39;101867.53;4985004;28;20034;-68
2024/02/04 07:07:29;;;;;;;1.65;0.98;;;;;;;20.52;38.48;101888.03;4990471;28;20108;-67
2024/02/04 07:09:55;;;;;;;3.55;1.33;;;;;;;20.47;38.37;101884.22;5001865;28;20062;-67
2024/02/04 07:12:21;;;;;;;1.67;0.90;;;;;;;20.42;38.36;101860.84;4982325;28;20046;-67
2024/02/04 07:14:47;;;;;;;4.40;1.30;;;;;;;20.50;38.26;101879.44;4992553;28;20048;-68
2024/02/04 07:17:12;;;;;;;2.80;0.85;;;;;;;20.47;38.51;101853.28;4989484;28;20050;-67
2024/02/04 07:19:38;;;;;;;2.28;0.93;;;;;;;20.57;38.27;101850.50;4986820;28;20049;-68
2024/02/04 07:22:04;;;;;;;2.35;1.00;;;;;;;20.67;38.06;101853.84;4986928;28;20057;-67
2024/02/04 07:24:29;;;;;;;3.65;1.45;;;;;;;21.19;37.50;101853.66;4996686;28;20045;-69
2024/02/04 07:26:55;;;;;;;1.48;0.80;;;;;;;21.48;36.97;101866.44;4986802;28;20112;-69
2024/02/04 07:29:21;;;;;;;1.73;0.85;;;;;;;21.71;36.63;101866.56;5005563;28;20601;-69
2024/02/04 07:31:46;;;;;;;3.45;1.08;;;;;;;21.66;36.66;101859.13;4982215;28;20085;-69
2024/02/04 07:34:12;;;;;;;2.40;1.23;;;;;;;21.62;37.08;101872.91;4990889;28;20054;-69
2024/02/04 07:36:37;;;;;;;1.67;0.73;;;;;;;21.62;36.90;101864.94;4996371;28;20522;-69
2024/02/04 07:39:04;;;;;;;2.78;1.23;;;;;;;21.57;36.79;101865.44;4994082;28;20486;-69
2024/02/04 07:41:31;;;;;;;2.33;0.93;;;;;;;21.48;36.92;101858.47;4984418;28;20546;-69
2024/02/04 07:43:57;;;;;;;2.55;1.25;;;;;;;21.43;37.26;101847.56;4987122;28;20072;-69
2024/02/04 07:46:22;;;;;;;4.63;1.30;;;;;;;21.37;37.16;101856.19;4985010;28;20045;-68
2024/02/04 07:48:48;;;;;;;5.65;1.60;;;;;;;21.31;37.42;101849.69;4989543;28;20042;-68
2024/02/04 07:51:14;;;;;;;1.55;1.13;;;;;;;21.27;37.51;101852.84;4982727;28;20039;-69
2024/02/04 07:53:39;;;;;;;3.17;1.42;;;;;;;21.26;37.52;101856.50;4988192;28;20034;-69
2024/02/04 07:56:06;;;;;;;1.17;0.98;;;;;;;21.27;37.44;101863.44;4982221;28;20042;-69
2024/02/04 07:58:32;;;;;;;2.30;1.10;;;;;;;21.25;37.47;101878.69;4987884;28;20095;-70
2024/02/04 08:00:58;;;;;;;3.25;1.10;;;;;;;21.22;37.79;101871.03;4980870;28;20054;-69
2024/02/04 08:03:23;;;;;;;2.67;1.33;;;;;;;21.13;37.83;101859.56;4989746;28;20153;-67
2024/02/04 08:05:49;;;;;;;1.77;0.90;;;;;;;20.94;37.79;101847.47;4984730;28;20043;-69
2024/02/04 08:08:15;;;;;;;2.90;1.40;;;;;;;21.16;37.59;101867.19;5001972;28;20129;-70
2024/02/04 08:10:40;;;;;;;3.97;1.27;;;;;;;21.07;37.79;101853.13;4984922;28;20660;-67
2024/02/04 08:13:06;;;;;;;3.95;1.13;;;;;;;21.10;37.73;101863.38;4984254;28;20407;-67
2024/02/04 08:15:32;;;;;;;1.95;0.98;;;;;;;21.09;37.68;101866.19;4986087;28;20054;-67
2024/02/04 08:17:57;;;;;;;3.60;1.30;;;;;;;21.08;37.59;101869.84;4992102;28;20124;-67
2024/02/04 08:20:23;;;;;;;2.47;0.90;;;;;;;21.09;37.57;101855.59;4985126;28;20750;-67
2024/02/04 08:22:48;;;;;;;3.22;1.35;;;;;;;21.06;37.66;101858.59;4988355;28;20039;-67
2024/02/04 08:25:14;;;;;;;2.97;1.42;;;;;;;21.07;37.90;101857.59;4982795;28;20475;-67
2024/02/04 08:27:40;;;;;;;1.95;1.00;;;;;;;21.02;37.72;101839.56;4984956;28;20492;-67
2024/02/04 08:30:06;;;;;;;2.45;1.50;;;;;;;21.03;37.97;101862.41;4991572;28;20108;-67
2024/02/04 08:32:31;;;;;;;4.18;1.50;;;;;;;20.92;37.72;101841.50;4977996;28;20559;-67
2024/02/04 08:34:57;;;;;;;3.17;1.33;;;;;;;21.01;37.90;101872.31;4984962;28;20122;-67
2024/02/04 08:37:22;;;;;;;4.22;1.70;;;;;;;20.99;37.81;101855.75;4990518;28;20121;-67
2024/02/04 08:39:48;;;;;;;2.42;1.25;;;;;;;21.00;37.64;101865.34;4993860;28;20108;-67
2024/02/04 08:42:14;;;;;;;4.05;1.17;;;;;;;20.92;37.68;101848.63;4991053;28;20384;-67
2024/02/04 08:44:41;;;;;;;3.13;1.35;;;;;;;20.91;37.86;101866.31;4982649;28;20045;-67
2024/02/04 08:47:10;;;;;;;5.18;1.67;;;;;;;20.97;37.77;101870.97;4990294;28;20034;-67
2024/02/04 08:49:36;;;;;;;3.95;1.15;;;;;;;20.96;37.85;101869.31;4997088;28;20762;-66
2024/02/04 08:52:02;;;;;;;3.05;1.15;;;;;;;20.92;37.81;101862.69;4989676;28;20042;-67
2024/02/04 08:54:28;;;;;;;4.82;1.42;;;;;;;20.94;37.75;101876.59;4986295;28;20132;-67
2024/02/04 08:56:53;;;;;;;3.67;1.55;;;;;;;20.76;37.86;101838.81;4988696;28;20618;-67
2024/02/04 08:59:19;;;;;;;1.45;1.00;;;;;;;20.89;37.93;101870.97;4990695;28;20041;-67
2024/02/04 09:01:44;;;;;;;4.35;1.67;;;;;;;20.93;37.54;101871.47;4986202;28;20046;-67
2024/02/04 09:04:10;;;;;;;3.42;1.33;;;;;;;20.93;37.67;101863.50;4987531;28;20049;-67
2024/02/04 09:06:35;;;;;;;3.55;1.42;;;;;;;20.92;37.65;101870.63;4987678;28;20053;-67
2024/02/04 09:09:01;;;;;;;2.95;1.35;;;;;;;20.90;37.62;101887.66;4982286;28;20054;-67
2024/02/04 09:11:26;;;;;;;4.78;1.25;;;;;;;20.85;37.83;101866.97;4982008;28;20696;-67
2024/02/04 09:13:52;;;;;;;4.43;1.58;;;;;;;20.88;37.82;101866.66;5002503;28;20140;-67
2024/02/04 09:16:17;;;;;;;2.55;1.02;;;;;;;20.93;37.62;101866.16;4989975;28;20558;-69
2024/02/04 09:18:43;;;;;;;6.18;1.75;;;;;;;20.92;37.63;101864.50;4987162;28;20049;-67
2024/02/04 09:21:08;;;;;;;3.40;1.40;;;;;;;20.93;37.79;101869.63;4988445;28;20041;-67
2024/02/04 09:23:34;;;;;;;5.75;1.40;;;;;;;20.93;37.61;101874.94;4985786;28;20045;-66
2024/02/04 09:25:59;;;;;;;3.70;1.13;;;;;;;20.94;37.82;101876.59;4977527;28;20046;-67
2024/02/04 09:28:25;;;;;;;5.15;1.60;;;;;;;20.91;37.61;101874.28;4984389;28;20045;-67
2024/02/04 09:30:51;;;;;;;3.90;1.40;;;;;;;21.05;37.54;101876.28;4982283;28;20043;-67
2024/02/04 09:33:16;;;;;;;4.18;1.58;;;;;;;21.07;37.05;101868.19;4984032;28;20075;-67
2024/02/04 09:35:42;;;;;;;2.42;1.08;;;;;;;21.05;37.15;101854.28;4983202;28;20034;-63
2024/02/04 09:38:07;;;;;;;4.45;2.05;;;;;;;21.07;36.90;101871.66;4986967;28;20475;-64
2024/02/04 09:40:33;;;;;;;4.75;2.05;;;;;;;21.04;36.87;101857.94;4987321;28;20045;-63
2024/02/04 09:43:00;;;;;;;8.50;2.17;;;;;;;21.03;36.76;101872.16;4982309;28;20038;-64
2024/02/04 09:45:26;;;;;;;5.32;1.48;;;;;;;20.85;37.20;101847.63;4983601;28;20038;-64
2024/02/04 09:47:53;;;;;;;3.75;1.40;;;;;;;20.78;37.20;101842.94;4987029;28;20034;-63
2024/02/04 09:50:21;;;;;;;5.30;1.80;;;;;;;21.06;37.06;101872.66;4984890;28;20470;-63
2024/02/04 09:52:50;;;;;;;3.08;1.45;;;;;;;21.06;37.10;101872.66;4984480;28;20030;-63
2024/02/04 09:55:19;;;;;;;4.45;1.52;;;;;;;21.04;37.40;101879.09;4983619;28;20049;-63
2024/02/04 09:57:45;;;;;;;2.90;1.30;;;;;;;21.04;37.46;101884.41;4983093;28;20038;-64
2024/02/04 10:00:12;;;;;;;4.18;1.75;;;;;;;21.04;37.60;101879.94;4988661;28;20041;-63
2024/02/04 10:02:41;;;;;;;3.60;1.92;;;;;;;21.04;37.43;101879.94;4982002;28;20034;-63
2024/02/04 10:05:09;;;;;;;5.20;1.98;;;;;;;21.05;37.46;101878.13;4998205;28;20104;-64
2024/02/04 10:07:34;;;;;;;2.97;1.52;;;;;;;21.03;37.53;101867.69;4985295;28;20042;-63
2024/02/04 10:10:01;;;;;;;3.15;1.40;;;;;;;21.04;37.55;101866.69;4986096;28;20427;-63
2024/02/04 10:12:27;;;;;;;3.67;1.40;;;;;;;20.97;37.32;101855.06;4985031;28;20124;-63
2024/02/04 10:14:52;;;;;;;4.47;1.23;;;;;;;21.01;37.33;101856.44;4986537;28;20589;-64
2024/02/04 10:17:20;;;;;;;4.15;1.67;;;;;;;21.01;37.31;101847.66;5000871;28;20042;-64
2024/02/04 10:19:47;;;;;;;5.75;2.38;;;;;;;21.02;37.22;101855.44;4985509;28;20101;-64
2024/02/04 10:22:13;;;;;;;6.05;1.75;;;;;;;21.22;37.04;101852.50;4930679;28;20359;-65
2024/02/04 10:24:39;;;;;;;3.75;1.55;;;;;;;21.62;36.58;101854.34;5002148;28;20054;-64
2024/02/04 10:27:05;;;;;;;5.88;1.30;;;;;;;22.31;36.00;101855.56;4987010;28;20062;-64
2024/02/04 10:29:30;;;;;;;5.80;1.98;;;;;;;23.05;34.93;101848.91;4984721;28;20417;-63
2024/02/04 10:31:57;;;;;;;2.72;1.45;;;;;;;23.57;34.22;101860.66;4985561;28;20042;-63
2024/02/04 10:34:27;;;;;;;4.07;1.20;;;;;;;23.84;33.88;101867.22;5000142;28;20633;-66
2024/02/04 10:36:53;;;;;;;3.03;1.35;;;;;;;23.76;33.80;101852.19;4900120;28;1129603;-64
2024/02/04 10:39:18;;;;;;;4.05;1.40;;;;;;;23.72;34.13;101859.69;4992218;28;20033;-64
2024/02/04 10:41:52;;;;;;;4.07;1.17;;;;;;;23.70;34.24;101853.75;4942117;28;20050;-65
2024/02/04 10:44:23;;;;;;;3.80;2.03;;;;;;;23.68;34.26;101861.03;4984205;28;20566;-63
2024/02/04 10:46:50;;;;;;;2.50;1.20;;;;;;;23.59;34.66;101858.66;4972196;28;20554;-66
2024/02/04 10:49:18;;;;;;;2.80;1.20;;;;;;;23.46;34.61;101852.06;4992644;28;20038;-63
2024/02/04 10:51:45;;;;;;;3.60;0.90;;;;;;;23.59;34.46;101864.78;4942293;28;20041;-65
2024/02/04 10:54:15;;;;;;;2.75;1.35;;;;;;;23.38;35.03;101853.97;4987488;28;20112;-64
2024/02/04 10:56:46;;;;;;;2.42;1.08;;;;;;;23.31;35.17;101842.41;4933491;28;20066;-65
2024/02/04 10:59:17;;;;;;;3.33;1.40;;;;;;;23.25;34.88;101848.44;4984800;28;20454;-63
2024/02/04 11:01:43;;;;;;;3.85;1.60;;;;;;;23.30;35.17;101854.03;4935353;28;20057;-64
2024/02/04 11:04:11;;;;;;;3.60;1.50;;;;;;;23.20;35.10;101854.28;4967391;28;20700;-67
2024/02/04 11:06:38;;;;;;;2.90;1.40;;;;;;;23.24;34.96;101860.06;4982114;28;20041;-62
2024/02/04 11:09:05;;;;;;;2.25;0.98;;;;;;;23.16;35.42;101858.28;4938083;28;20149;-62
2024/02/04 11:11:32;;;;;;;3.03;1.20;;;;;;;23.04;35.39;101857.06;4985079;28;20074;-64
2024/02/04 11:14:02;;;;;;;1.83;1.10;;;;;;;23.02;35.77;101864.38;4951285;28;20046;-64
2024/02/04 11:16:52;;;;;;;1.52;1.10;;;;;;;22.99;35.51;101860.25;5001550;28;20050;-63
2024/02/04 11:19:32;;;;;;;5.45;1.33;;;;;;;23.01;35.72;101857.41;4936581;28;20702;-62
2024/02/04 11:22:42;;;;;;;4.70;1.60;;;;;;;22.98;35.94;101840.00;5002690;28;20145;-64
2024/02/04 11:25:34;;;;;;;;;;;;;;;22.92;35.81;101846.00;4931835;28;20121;-67